sensor_id;sensor_type;location;lat;lon;timestamp;pressure;altitude;pressure_sealevel;temperature;humidity
6094;BME280;19964;42.060;24.700;2023-04-20T00:00:06;97111.56;;;9.58;100.00
6094;BME280;19964;42.060;24.700;2023-04-20T00:02:35;97088.66;;;9.27;100.00
6094;BME280;19964;42.060;24.700;2023-04-20T00:05:03;97091.41;;;9.20;100.00
6094;BME280;19964;42.060;24.700;2023-04-20T00:07:30;97096.34;;;9.10;100.00
6094;BME280;19964;42.060;24.700;2023-04-20T00:09:59;97090.28;;;9.05;100.00
6094;BME280;19964;42.060;24.700;2023-04-20T00:12:26;97090.59;;;9.20;100.00
6094;BME280;19964;42.060;24.700;2023-04-20T00:14:53;97086.44;;;9.07;100.00
6094;BME280;19964;42.060;24.700;2023-04-20T00:17:20;97086.66;;;9.06;100.00
6094;BME280;19964;42.060;24.700;2023-04-20T00:19:47;97082.84;;;8.96;100.00
6094;BME280;19964;42.060;24.700;2023-04-20T00:22:14;97079.72;;;9.06;100.00
6094;BME280;19964;42.060;24.700;2023-04-20T00:24:41;97085.09;;;9.16;100.00
6094;BME280;19964;42.060;24.700;2023-04-20T00:27:10;97083.88;;;9.30;100.00
6094;BME280;19964;42.060;24.700;2023-04-20T00:29:37;97083.97;;;9.24;100.00
6094;BME280;19964;42.060;24.700;2023-04-20T00:32:04;97088.56;;;9.33;100.00
6094;BME280;19964;42.060;24.700;2023-04-20T00:34:31;97091.81;;;9.40;100.00
6094;BME280;19964;42.060;24.700;2023-04-20T00:36:58;97095.66;;;9.38;100.00
6094;BME280;19964;42.060;24.700;2023-04-20T00:39:25;97084.94;;;9.34;100.00
6094;BME280;19964;42.060;24.700;2023-04-20T00:41:52;97084.78;;;9.13;100.00
6094;BME280;19964;42.060;24.700;2023-04-20T00:44:21;97089.56;;;9.21;100.00
6094;BME280;19964;42.060;24.700;2023-04-20T00:46:48;97096.31;;;9.33;100.00
6094;BME280;19964;42.060;24.700;2023-04-20T00:49:18;97099.38;;;9.30;100.00
6094;BME280;19964;42.060;24.700;2023-04-20T00:51:45;97099.72;;;9.22;100.00
6094;BME280;19964;42.060;24.700;2023-04-20T00:54:12;97089.72;;;9.03;100.00
6094;BME280;19964;42.060;24.700;2023-04-20T00:56:39;97096.44;;;9.04;100.00
6094;BME280;19964;42.060;24.700;2023-04-20T00:59:07;97091.59;;;9.07;100.00
6094;BME280;19964;42.060;24.700;2023-04-20T01:01:37;97081.25;;;9.19;100.00
6094;BME280;19964;42.060;24.700;2023-04-20T01:04:04;97091.72;;;9.35;100.00
6094;BME280;19964;42.060;24.700;2023-04-20T01:06:32;97095.31;;;9.46;100.00
6094;BME280;19964;42.060;24.700;2023-04-20T01:08:59;97105.28;;;9.65;100.00
6094;BME280;19964;42.060;24.700;2023-04-20T01:11:26;97098.81;;;9.79;100.00
6094;BME280;19964;42.060;24.700;2023-04-20T01:13:53;97103.31;;;9.84;100.00
6094;BME280;19964;42.060;24.700;2023-04-20T01:16:20;97102.53;;;9.83;100.00
6094;BME280;19964;42.060;24.700;2023-04-20T01:18:49;97104.50;;;9.93;100.00
6094;BME280;19964;42.060;24.700;2023-04-20T01:21:18;96997.31;;;9.33;100.00
6094;BME280;19964;42.060;24.700;2023-04-20T01:23:47;97095.94;;;10.04;100.00
6094;BME280;19964;42.060;24.700;2023-04-20T01:26:16;97101.13;;;10.04;100.00
6094;BME280;19964;42.060;24.700;2023-04-20T01:28:43;97094.03;;;10.00;100.00
6094;BME280;19964;42.060;24.700;2023-04-20T01:31:11;97099.44;;;10.10;100.00
6094;BME280;19964;42.060;24.700;2023-04-20T01:33:39;97103.69;;;10.16;100.00
6094;BME280;19964;42.060;24.700;2023-04-20T01:36:07;97016.00;;;9.63;100.00
6094;BME280;19964;42.060;24.700;2023-04-20T01:38:34;97106.91;;;10.23;100.00
6094;BME280;19964;42.060;24.700;2023-04-20T01:41:05;97098.16;;;10.24;100.00
6094;BME280;19964;42.060;24.700;2023-04-20T01:43:33;97097.34;;;10.23;100.00
6094;BME280;19964;42.060;24.700;2023-04-20T01:46:01;97076.47;;;10.13;100.00
6094;BME280;19964;42.060;24.700;2023-04-20T01:48:28;97102.47;;;10.35;100.00
6094;BME280;19964;42.060;24.700;2023-04-20T01:50:55;97096.75;;;10.33;100.00
6094;BME280;19964;42.060;24.700;2023-04-20T01:53:22;97102.59;;;10.28;100.00
6094;BME280;19964;42.060;24.700;2023-04-20T01:55:50;97111.16;;;10.29;100.00
6094;BME280;19964;42.060;24.700;2023-04-20T01:58:18;97108.53;;;10.40;100.00
6094;BME280;19964;42.060;24.700;2023-04-20T02:00:45;97084.66;;;10.22;100.00
6094;BME280;19964;42.060;24.700;2023-04-20T02:03:12;97098.16;;;10.24;100.00
6094;BME280;19964;42.060;24.700;2023-04-20T02:05:39;97101.06;;;10.27;100.00
6094;BME280;19964;42.060;24.700;2023-04-20T02:08:06;97103.78;;;10.21;100.00
6094;BME280;19964;42.060;24.700;2023-04-20T02:10:33;97066.56;;;9.99;100.00
6094;BME280;19964;42.060;24.700;2023-04-20T02:13:00;97087.16;;;10.05;100.00
6094;BME280;19964;42.060;24.700;2023-04-20T02:15:29;97080.06;;;10.01;100.00
6094;BME280;19964;42.060;24.700;2023-04-20T02:17:56;97077.88;;;9.93;100.00
6094;BME280;19964;42.060;24.700;2023-04-20T02:20:23;97087.16;;;9.77;100.00
6094;BME280;19964;42.060;24.700;2023-04-20T02:22:50;97071.19;;;9.68;100.00
6094;BME280;19964;42.060;24.700;2023-04-20T02:25:17;97085.44;;;9.82;100.00
6094;BME280;19964;42.060;24.700;2023-04-20T02:27:44;97068.84;;;9.67;100.00
6094;BME280;19964;42.060;24.700;2023-04-20T02:30:12;97103.31;;;9.84;100.00
6094;BME280;19964;42.060;24.700;2023-04-20T02:32:40;97090.09;;;9.97;100.00
6094;BME280;19964;42.060;24.700;2023-04-20T02:35:08;97095.59;;;10.01;100.00
6094;BME280;19964;42.060;24.700;2023-04-20T02:37:35;97111.00;;;10.07;100.00
6094;BME280;19964;42.060;24.700;2023-04-20T02:40:02;97100.78;;;10.12;100.00
6094;BME280;19964;42.060;24.700;2023-04-20T02:42:30;97091.31;;;10.06;100.00
6094;BME280;19964;42.060;24.700;2023-04-20T02:44:57;97091.03;;;9.91;100.00
6094;BME280;19964;42.060;24.700;2023-04-20T02:47:24;97099.81;;;9.90;100.00
6094;BME280;19964;42.060;24.700;2023-04-20T02:49:52;97033.34;;;9.51;100.00
6094;BME280;19964;42.060;24.700;2023-04-20T02:52:19;97097.25;;;9.78;100.00
6094;BME280;19964;42.060;24.700;2023-04-20T02:54:46;97098.59;;;9.69;100.00
6094;BME280;19964;42.060;24.700;2023-04-20T02:57:13;97094.56;;;9.73;100.00
6094;BME280;19964;42.060;24.700;2023-04-20T02:59:40;97109.03;;;9.86;100.00
6094;BME280;19964;42.060;24.700;2023-04-20T03:02:07;97113.06;;;9.94;100.00
6094;BME280;19964;42.060;24.700;2023-04-20T03:04:34;97096.50;;;9.66;100.00
6094;BME280;19964;42.060;24.700;2023-04-20T03:07:03;97109.31;;;9.73;100.00
6094;BME280;19964;42.060;24.700;2023-04-20T03:09:30;97093.94;;;9.55;100.00
6094;BME280;19964;42.060;24.700;2023-04-20T03:11:57;97107.97;;;9.59;100.00
6094;BME280;19964;42.060;24.700;2023-04-20T03:14:26;97113.72;;;9.61;100.00
6094;BME280;19964;42.060;24.700;2023-04-20T03:16:53;97106.97;;;9.48;100.00
6094;BME280;19964;42.060;24.700;2023-04-20T03:19:20;97099.22;;;9.37;100.00
6094;BME280;19964;42.060;24.700;2023-04-20T03:21:47;97102.38;;;9.27;100.00
6094;BME280;19964;42.060;24.700;2023-04-20T03:24:16;97093.75;;;9.22;100.00
6094;BME280;19964;42.060;24.700;2023-04-20T03:26:43;97104.97;;;9.16;100.00
6094;BME280;19964;42.060;24.700;2023-04-20T03:29:10;97105.88;;;9.21;100.00
6094;BME280;19964;42.060;24.700;2023-04-20T03:31:37;97103.63;;;9.02;100.00
6094;BME280;19964;42.060;24.700;2023-04-20T03:34:04;97105.09;;;9.09;100.00
6094;BME280;19964;42.060;24.700;2023-04-20T03:36:31;97104.66;;;9.12;100.00
6094;BME280;19964;42.060;24.700;2023-04-20T03:38:58;97107.88;;;8.96;100.00
6094;BME280;19964;42.060;24.700;2023-04-20T03:41:27;97108.34;;;8.81;100.00
6094;BME280;19964;42.060;24.700;2023-04-20T03:43:54;97111.03;;;8.86;100.00
6094;BME280;19964;42.060;24.700;2023-04-20T03:46:21;97096.91;;;8.89;100.00
6094;BME280;19964;42.060;24.700;2023-04-20T03:48:48;97114.19;;;9.12;100.00
6094;BME280;19964;42.060;24.700;2023-04-20T03:51:15;97109.25;;;9.33;100.00
6094;BME280;19964;42.060;24.700;2023-04-20T03:53:42;97112.56;;;9.68;100.00
6094;BME280;19964;42.060;24.700;2023-04-20T03:56:09;97118.28;;;9.82;100.00
6094;BME280;19964;42.060;24.700;2023-04-20T03:58:37;97122.94;;;10.08;100.00
6094;BME280;19964;42.060;24.700;2023-04-20T04:01:05;97066.47;;;9.77;100.00
6094;BME280;19964;42.060;24.700;2023-04-20T04:03:33;97129.09;;;10.19;100.00
6094;BME280;19964;42.060;24.700;2023-04-20T04:06:00;97119.72;;;10.29;97.64
6094;BME280;19964;42.060;24.700;2023-04-20T04:08:27;97123.59;;;10.43;96.88
6094;BME280;19964;42.060;24.700;2023-04-20T04:10:54;97134.59;;;10.50;95.91
6094;BME280;19964;42.060;24.700;2023-04-20T04:13:21;97138.09;;;10.72;94.95
6094;BME280;19964;42.060;24.700;2023-04-20T04:15:49;97137.94;;;10.96;92.85
6094;BME280;19964;42.060;24.700;2023-04-20T04:18:16;97138.41;;;11.26;92.24
6094;BME280;19964;42.060;24.700;2023-04-20T04:20:43;97143.09;;;11.45;90.51
6094;BME280;19964;42.060;24.700;2023-04-20T04:23:10;97131.56;;;11.96;89.63
6094;BME280;19964;42.060;24.700;2023-04-20T04:25:38;97114.06;;;12.08;84.84
6094;BME280;19964;42.060;24.700;2023-04-20T04:28:05;97125.50;;;12.34;86.47
6094;BME280;19964;42.060;24.700;2023-04-20T04:30:32;97124.41;;;12.57;86.21
6094;BME280;19964;42.060;24.700;2023-04-20T04:33:01;97116.88;;;12.55;85.60
6094;BME280;19964;42.060;24.700;2023-04-20T04:35:29;97118.91;;;12.48;86.10
6094;BME280;19964;42.060;24.700;2023-04-20T04:37:56;97104.16;;;12.59;85.23
6094;BME280;19964;42.060;24.700;2023-04-20T04:40:23;97124.78;;;12.97;81.46
6094;BME280;19964;42.060;24.700;2023-04-20T04:42:50;97091.72;;;12.92;81.16
6094;BME280;19964;42.060;24.700;2023-04-20T04:45:17;97119.44;;;13.13;82.31
6094;BME280;19964;42.060;24.700;2023-04-20T04:47:44;97113.06;;;12.99;81.65
6094;BME280;19964;42.060;24.700;2023-04-20T04:50:13;97072.41;;;12.83;79.49
6094;BME280;19964;42.060;24.700;2023-04-20T04:52:40;97116.41;;;13.26;78.68
6094;BME280;19964;42.060;24.700;2023-04-20T04:55:07;97030.97;;;13.03;76.92
6094;BME280;19964;42.060;24.700;2023-04-20T04:57:34;97112.88;;;13.94;76.96
6094;BME280;19964;42.060;24.700;2023-04-20T05:00:04;97117.63;;;14.17;76.22
6094;BME280;19964;42.060;24.700;2023-04-20T05:02:32;97127.75;;;14.04;75.14
6094;BME280;19964;42.060;24.700;2023-04-20T05:04:59;97121.53;;;14.20;74.78
6094;BME280;19964;42.060;24.700;2023-04-20T05:07:28;97121.97;;;13.97;73.63
6094;BME280;19964;42.060;24.700;2023-04-20T05:09:55;97131.13;;;13.99;74.70
6094;BME280;19964;42.060;24.700;2023-04-20T05:12:22;97130.84;;;13.96;74.69
6094;BME280;19964;42.060;24.700;2023-04-20T05:14:50;97132.16;;;13.98;77.78
6094;BME280;19964;42.060;24.700;2023-04-20T05:17:17;97134.78;;;13.98;74.96
6094;BME280;19964;42.060;24.700;2023-04-20T05:19:44;97128.28;;;14.06;78.56
6094;BME280;19964;42.060;24.700;2023-04-20T05:22:11;97135.19;;;14.37;78.94
6094;BME280;19964;42.060;24.700;2023-04-20T05:24:39;97128.69;;;14.65;78.52
6094;BME280;19964;42.060;24.700;2023-04-20T05:27:07;97137.09;;;14.92;77.02
6094;BME280;19964;42.060;24.700;2023-04-20T05:29:34;97110.97;;;14.72;72.27
6094;BME280;19964;42.060;24.700;2023-04-20T05:32:01;97126.34;;;15.44;69.66
6094;BME280;19964;42.060;24.700;2023-04-20T05:34:28;97138.25;;;15.85;64.41
6094;BME280;19964;42.060;24.700;2023-04-20T05:36:56;97108.84;;;16.18;64.06
6094;BME280;19964;42.060;24.700;2023-04-20T05:39:24;97109.06;;;16.70;61.55
6094;BME280;19964;42.060;24.700;2023-04-20T05:41:52;97122.91;;;17.10;59.17
6094;BME280;19964;42.060;24.700;2023-04-20T05:44:19;97124.94;;;17.13;60.54
6094;BME280;19964;42.060;24.700;2023-04-20T05:46:46;97122.97;;;17.28;57.82
6094;BME280;19964;42.060;24.700;2023-04-20T05:49:13;97114.28;;;17.61;57.18
6094;BME280;19964;42.060;24.700;2023-04-20T05:51:40;97134.81;;;18.20;56.39
6094;BME280;19964;42.060;24.700;2023-04-20T05:54:07;97122.19;;;18.46;55.86
6094;BME280;19964;42.060;24.700;2023-04-20T05:56:34;97115.22;;;18.74;55.32
6094;BME280;19964;42.060;24.700;2023-04-20T05:59:03;97129.97;;;18.70;56.51
6094;BME280;19964;42.060;24.700;2023-04-20T06:01:30;97129.06;;;19.11;53.56
6094;BME280;19964;42.060;24.700;2023-04-20T06:03:57;97109.88;;;18.23;53.72
6094;BME280;19964;42.060;24.700;2023-04-20T06:06:24;97144.28;;;18.21;54.28
6094;BME280;19964;42.060;24.700;2023-04-20T06:08:52;97138.53;;;18.38;54.05
6094;BME280;19964;42.060;24.700;2023-04-20T06:11:19;97137.31;;;18.12;53.88
6094;BME280;19964;42.060;24.700;2023-04-20T06:13:46;97138.44;;;18.67;54.12
6094;BME280;19964;42.060;24.700;2023-04-20T06:16:14;97144.66;;;18.71;52.67
6094;BME280;19964;42.060;24.700;2023-04-20T06:18:41;97147.13;;;18.01;53.26
6094;BME280;19964;42.060;24.700;2023-04-20T06:21:09;97146.97;;;18.35;53.66
6094;BME280;19964;42.060;24.700;2023-04-20T06:23:36;97148.44;;;18.46;54.29
6094;BME280;19964;42.060;24.700;2023-04-20T06:26:03;97123.44;;;17.64;53.76
6094;BME280;19964;42.060;24.700;2023-04-20T06:28:33;97140.06;;;18.02;55.71
6094;BME280;19964;42.060;24.700;2023-04-20T06:31:00;97143.91;;;17.86;53.95
6094;BME280;19964;42.060;24.700;2023-04-20T06:33:28;97146.50;;;18.09;55.65
6094;BME280;19964;42.060;24.700;2023-04-20T06:35:55;97139.69;;;18.08;54.14
6094;BME280;19964;42.060;24.700;2023-04-20T06:38:22;97128.28;;;16.89;57.89
6094;BME280;19964;42.060;24.700;2023-04-20T06:40:49;97146.47;;;16.71;56.20
6094;BME280;19964;42.060;24.700;2023-04-20T06:43:17;97138.94;;;16.64;57.89
6094;BME280;19964;42.060;24.700;2023-04-20T06:45:43;97123.78;;;16.08;58.86
6094;BME280;19964;42.060;24.700;2023-04-20T06:48:11;97134.78;;;15.99;58.52
6094;BME280;19964;42.060;24.700;2023-04-20T06:50:39;97142.28;;;16.21;59.07
6094;BME280;19964;42.060;24.700;2023-04-20T06:53:06;97146.63;;;16.41;57.81
6094;BME280;19964;42.060;24.700;2023-04-20T06:55:33;97138.59;;;16.76;57.90
6094;BME280;19964;42.060;24.700;2023-04-20T06:58:00;97135.50;;;16.69;56.70
6094;BME280;19964;42.060;24.700;2023-04-20T07:00:27;97135.28;;;16.60;56.76
6094;BME280;19964;42.060;24.700;2023-04-20T07:02:54;97051.44;;;15.98;58.37
6094;BME280;19964;42.060;24.700;2023-04-20T07:05:21;97121.25;;;16.41;56.66
6094;BME280;19964;42.060;24.700;2023-04-20T07:07:49;97064.84;;;15.86;57.56
6094;BME280;19964;42.060;24.700;2023-04-20T07:10:16;97059.19;;;16.18;57.19
6094;BME280;19964;42.060;24.700;2023-04-20T07:12:43;97125.47;;;16.81;57.10
6094;BME280;19964;42.060;24.700;2023-04-20T07:15:11;97129.84;;;16.90;56.42
6094;BME280;19964;42.060;24.700;2023-04-20T07:17:38;97125.81;;;17.03;57.49
6094;BME280;19964;42.060;24.700;2023-04-20T07:20:06;97133.59;;;17.13;57.24
6094;BME280;19964;42.060;24.700;2023-04-20T07:22:33;97123.41;;;17.12;54.51
6094;BME280;19964;42.060;24.700;2023-04-20T07:25:03;97134.09;;;17.72;55.11
6094;BME280;19964;42.060;24.700;2023-04-20T07:27:33;97139.38;;;17.67;53.62
6094;BME280;19964;42.060;24.700;2023-04-20T07:30:01;97133.69;;;17.60;55.46
6094;BME280;19964;42.060;24.700;2023-04-20T07:32:28;97140.34;;;17.76;55.21
6094;BME280;19964;42.060;24.700;2023-04-20T07:34:55;97137.44;;;18.02;53.85
6094;BME280;19964;42.060;24.700;2023-04-20T07:37:22;97127.19;;;17.82;53.76
6094;BME280;19964;42.060;24.700;2023-04-20T07:39:50;97133.75;;;17.79;53.63
6094;BME280;19964;42.060;24.700;2023-04-20T07:42:19;97135.34;;;18.41;51.98
6094;BME280;19964;42.060;24.700;2023-04-20T07:44:46;97135.63;;;18.21;50.59
6094;BME280;19964;42.060;24.700;2023-04-20T07:47:13;97135.09;;;18.61;52.36
6094;BME280;19964;42.060;24.700;2023-04-20T07:49:41;97120.16;;;18.38;50.77
6094;BME280;19964;42.060;24.700;2023-04-20T07:52:08;97112.09;;;18.72;50.98
6094;BME280;19964;42.060;24.700;2023-04-20T07:54:35;97137.03;;;19.06;51.15
6094;BME280;19964;42.060;24.700;2023-04-20T07:57:02;97118.84;;;18.59;51.05
6094;BME280;19964;42.060;24.700;2023-04-20T07:59:30;97127.03;;;18.34;51.29
6094;BME280;19964;42.060;24.700;2023-04-20T08:01:58;97144.19;;;18.26;52.19
6094;BME280;19964;42.060;24.700;2023-04-20T08:04:26;97129.72;;;17.87;51.44
6094;BME280;19964;42.060;24.700;2023-04-20T08:06:53;97147.97;;;17.97;50.42
6094;BME280;19964;42.060;24.700;2023-04-20T08:09:20;97131.19;;;17.98;51.88
6094;BME280;19964;42.060;24.700;2023-04-20T08:11:47;97131.38;;;17.83;51.41
6094;BME280;19964;42.060;24.700;2023-04-20T08:14:14;97131.19;;;17.74;52.19
6094;BME280;19964;42.060;24.700;2023-04-20T08:16:42;97139.56;;;18.00;51.38
6094;BME280;19964;42.060;24.700;2023-04-20T08:19:09;97143.28;;;18.36;51.35
6094;BME280;19964;42.060;24.700;2023-04-20T08:21:36;97139.41;;;18.52;51.11
6094;BME280;19964;42.060;24.700;2023-04-20T08:24:04;97131.00;;;17.89;51.11
6094;BME280;19964;42.060;24.700;2023-04-20T08:26:32;97129.03;;;18.23;52.51
6094;BME280;19964;42.060;24.700;2023-04-20T08:28:59;97132.75;;;18.59;50.80
6094;BME280;19964;42.060;24.700;2023-04-20T08:31:27;97133.25;;;18.80;51.01
6094;BME280;19964;42.060;24.700;2023-04-20T08:33:55;97125.44;;;18.75;50.52
6094;BME280;19964;42.060;24.700;2023-04-20T08:36:22;97133.75;;;18.63;50.91
6094;BME280;19964;42.060;24.700;2023-04-20T08:38:53;97132.38;;;18.47;50.87
6094;BME280;19964;42.060;24.700;2023-04-20T08:41:20;97126.31;;;18.10;52.18
6094;BME280;19964;42.060;24.700;2023-04-20T08:43:47;97131.28;;;18.11;52.59
6094;BME280;19964;42.060;24.700;2023-04-20T08:46:16;97110.72;;;17.76;52.25
6094;BME280;19964;42.060;24.700;2023-04-20T08:48:45;97125.75;;;18.13;53.25
6094;BME280;19964;42.060;24.700;2023-04-20T08:51:15;97128.59;;;17.93;53.39
6094;BME280;19964;42.060;24.700;2023-04-20T08:53:42;97128.09;;;18.14;53.07
6094;BME280;19964;42.060;24.700;2023-04-20T08:56:09;97116.50;;;17.97;54.59
6094;BME280;19964;42.060;24.700;2023-04-20T08:58:37;97120.91;;;18.01;52.67
6094;BME280;19964;42.060;24.700;2023-04-20T09:01:07;97118.56;;;18.00;52.47
6094;BME280;19964;42.060;24.700;2023-04-20T09:03:36;97120.91;;;18.01;53.92
6094;BME280;19964;42.060;24.700;2023-04-20T09:06:04;97061.00;;;17.71;51.77
6094;BME280;19964;42.060;24.700;2023-04-20T09:08:36;97113.22;;;18.28;52.16
6094;BME280;19964;42.060;24.700;2023-04-20T09:11:04;97134.16;;;18.33;51.87
6094;BME280;19964;42.060;24.700;2023-04-20T09:13:31;97117.69;;;18.28;51.65
6094;BME280;19964;42.060;24.700;2023-04-20T09:16:08;97107.00;;;17.58;53.00
6094;BME280;19964;42.060;24.700;2023-04-20T09:18:37;97118.38;;;17.44;54.42
6094;BME280;19964;42.060;24.700;2023-04-20T09:21:07;97117.81;;;17.47;54.97
6094;BME280;19964;42.060;24.700;2023-04-20T09:23:36;97132.28;;;17.11;56.34
6094;BME280;19964;42.060;24.700;2023-04-20T09:26:03;97132.06;;;17.07;54.62
6094;BME280;19964;42.060;24.700;2023-04-20T09:28:34;97119.09;;;16.58;55.14
6094;BME280;19964;42.060;24.700;2023-04-20T09:31:03;97105.22;;;16.58;55.65
6094;BME280;19964;42.060;24.700;2023-04-20T09:33:30;97119.47;;;16.80;56.44
6094;BME280;19964;42.060;24.700;2023-04-20T09:36:02;97050.66;;;16.41;55.36
6094;BME280;19964;42.060;24.700;2023-04-20T09:38:30;97115.72;;;16.91;55.44
6094;BME280;19964;42.060;24.700;2023-04-20T09:40:59;97053.84;;;16.72;55.06
6094;BME280;19964;42.060;24.700;2023-04-20T09:43:28;97101.75;;;17.58;54.06
6094;BME280;19964;42.060;24.700;2023-04-20T09:45:56;97108.50;;;17.88;54.39
6094;BME280;19964;42.060;24.700;2023-04-20T09:48:23;97024.69;;;18.20;54.75
6094;BME280;19964;42.060;24.700;2023-04-20T09:50:51;97107.47;;;19.46;52.57
6094;BME280;19964;42.060;24.700;2023-04-20T09:53:19;97108.22;;;19.47;49.11
6094;BME280;19964;42.060;24.700;2023-04-20T09:55:47;97107.94;;;19.03;50.31
6094;BME280;19964;42.060;24.700;2023-04-20T09:58:16;97107.16;;;18.51;51.03
6094;BME280;19964;42.060;24.700;2023-04-20T10:00:43;97103.94;;;18.36;51.27
6094;BME280;19964;42.060;24.700;2023-04-20T10:03:10;97104.94;;;18.40;53.63
6094;BME280;19964;42.060;24.700;2023-04-20T10:05:38;97089.41;;;18.43;51.70
6094;BME280;19964;42.060;24.700;2023-04-20T10:08:05;97100.47;;;18.59;51.41
6094;BME280;19964;42.060;24.700;2023-04-20T10:10:42;97097.91;;;18.17;51.87
6094;BME280;19964;42.060;24.700;2023-04-20T10:13:09;97096.41;;;17.68;51.40
6094;BME280;19964;42.060;24.700;2023-04-20T10:15:39;97097.34;;;17.77;50.48
6094;BME280;19964;42.060;24.700;2023-04-20T10:18:17;97083.50;;;17.96;51.85
6094;BME280;19964;42.060;24.700;2023-04-20T10:20:44;97086.09;;;18.56;51.27
6094;BME280;19964;42.060;24.700;2023-04-20T10:23:11;97083.47;;;19.21;49.60
6094;BME280;19964;42.060;24.700;2023-04-20T10:25:41;97076.31;;;19.67;49.21
6094;BME280;19964;42.060;24.700;2023-04-20T10:28:10;97077.66;;;19.92;49.41
6094;BME280;19964;42.060;24.700;2023-04-20T10:30:49;96989.47;;;19.18;50.59
6094;BME280;19964;42.060;24.700;2023-04-20T10:33:17;97042.34;;;18.84;52.27
6094;BME280;19964;42.060;24.700;2023-04-20T10:35:46;97082.91;;;18.59;50.46
6094;BME280;19964;42.060;24.700;2023-04-20T10:38:13;97085.78;;;18.21;52.45
6094;BME280;19964;42.060;24.700;2023-04-20T10:40:41;97061.50;;;17.73;54.63
6094;BME280;19964;42.060;24.700;2023-04-20T10:43:21;97085.59;;;17.51;52.47
6094;BME280;19964;42.060;24.700;2023-04-20T10:45:49;97089.94;;;17.61;54.33
6094;BME280;19964;42.060;24.700;2023-04-20T10:48:16;97081.81;;;18.05;52.75
6094;BME280;19964;42.060;24.700;2023-04-20T10:50:43;97084.47;;;18.60;51.90
6094;BME280;19964;42.060;24.700;2023-04-20T10:53:17;97087.50;;;19.45;51.80
6094;BME280;19964;42.060;24.700;2023-04-20T10:55:45;97080.94;;;18.84;49.54
6094;BME280;19964;42.060;24.700;2023-04-20T10:58:20;97089.22;;;18.91;51.01
6094;BME280;19964;42.060;24.700;2023-04-20T11:00:57;97083.88;;;19.28;49.68
6094;BME280;19964;42.060;24.700;2023-04-20T11:03:26;97081.47;;;19.59;49.15
6094;BME280;19964;42.060;24.700;2023-04-20T11:05:54;97082.63;;;19.66;49.27
6094;BME280;19964;42.060;24.700;2023-04-20T11:08:34;97083.63;;;19.70;49.39
6094;BME280;19964;42.060;24.700;2023-04-20T11:11:01;97067.94;;;19.38;47.25
6094;BME280;19964;42.060;24.700;2023-04-20T11:13:28;97074.47;;;19.68;48.53
6094;BME280;19964;42.060;24.700;2023-04-20T11:15:59;97071.38;;;19.52;50.28
6094;BME280;19964;42.060;24.700;2023-04-20T11:18:26;97077.47;;;19.88;50.12
6094;BME280;19964;42.060;24.700;2023-04-20T11:20:55;97075.16;;;19.87;47.47
6094;BME280;19964;42.060;24.700;2023-04-20T11:23:23;97066.38;;;19.37;49.41
6094;BME280;19964;42.060;24.700;2023-04-20T11:25:52;97068.56;;;19.62;48.22
6094;BME280;19964;42.060;24.700;2023-04-20T11:28:20;97046.75;;;19.62;48.63
6094;BME280;19964;42.060;24.700;2023-04-20T11:30:47;97063.72;;;20.05;46.76
6094;BME280;19964;42.060;24.700;2023-04-20T11:33:25;97057.41;;;19.92;46.08
6094;BME280;19964;42.060;24.700;2023-04-20T11:35:54;97038.56;;;19.49;48.64
6094;BME280;19964;42.060;24.700;2023-04-20T11:38:29;97045.28;;;19.69;47.07
6094;BME280;19964;42.060;24.700;2023-04-20T11:40:56;97039.72;;;19.71;49.28
6094;BME280;19964;42.060;24.700;2023-04-20T11:43:29;97050.31;;;19.79;48.09
6094;BME280;19964;42.060;24.700;2023-04-20T11:45:56;96954.03;;;18.61;48.77
6094;BME280;19964;42.060;24.700;2023-04-20T11:48:24;97038.53;;;19.22;49.52
6094;BME280;19964;42.060;24.700;2023-04-20T11:50:52;97035.78;;;19.27;49.33
6094;BME280;19964;42.060;24.700;2023-04-20T11:53:18;97033.66;;;19.29;48.65
6094;BME280;19964;42.060;24.700;2023-04-20T11:55:45;97036.78;;;19.31;49.97
6094;BME280;19964;42.060;24.700;2023-04-20T11:58:12;97025.41;;;19.22;47.77
6094;BME280;19964;42.060;24.700;2023-04-20T12:00:39;97024.06;;;19.38;49.41
6094;BME280;19964;42.060;24.700;2023-04-20T12:03:06;97021.13;;;19.67;47.95
6094;BME280;19964;42.060;24.700;2023-04-20T12:05:34;97022.75;;;19.77;47.80
6094;BME280;19964;42.060;24.700;2023-04-20T12:08:01;97028.69;;;19.82;48.26
6094;BME280;19964;42.060;24.700;2023-04-20T12:10:28;97024.81;;;19.66;47.34
6094;BME280;19964;42.060;24.700;2023-04-20T12:12:55;97019.47;;;19.71;48.41
6094;BME280;19964;42.060;24.700;2023-04-20T12:15:24;97029.28;;;19.93;46.49
6094;BME280;19964;42.060;24.700;2023-04-20T12:17:51;97020.75;;;19.46;44.47
6094;BME280;19964;42.060;24.700;2023-04-20T12:20:18;97025.63;;;19.39;45.75
6094;BME280;19964;42.060;24.700;2023-04-20T12:22:46;96931.41;;;18.79;47.15
6094;BME280;19964;42.060;24.700;2023-04-20T12:25:13;97009.75;;;19.31;46.42
6094;BME280;19964;42.060;24.700;2023-04-20T12:27:40;97000.19;;;19.48;46.89
6094;BME280;19964;42.060;24.700;2023-04-20T12:30:08;97006.44;;;19.52;45.81
6094;BME280;19964;42.060;24.700;2023-04-20T12:32:35;96979.84;;;19.68;45.29
6094;BME280;19964;42.060;24.700;2023-04-20T12:35:02;96990.03;;;19.83;45.20
6094;BME280;19964;42.060;24.700;2023-04-20T12:37:28;96993.72;;;19.46;45.58
6094;BME280;19964;42.060;24.700;2023-04-20T12:39:57;96989.53;;;19.94;46.60
6094;BME280;19964;42.060;24.700;2023-04-20T12:42:24;96988.69;;;20.07;46.06
6094;BME280;19964;42.060;24.700;2023-04-20T12:44:51;96976.75;;;19.66;46.13
6094;BME280;19964;42.060;24.700;2023-04-20T12:47:19;96921.78;;;19.42;45.91
6094;BME280;19964;42.060;24.700;2023-04-20T12:49:45;96989.22;;;19.96;45.13
6094;BME280;19964;42.060;24.700;2023-04-20T12:52:12;96972.69;;;19.95;45.39
6094;BME280;19964;42.060;24.700;2023-04-20T12:54:39;96980.56;;;20.31;44.29
6094;BME280;19964;42.060;24.700;2023-04-20T12:57:07;96986.25;;;20.24;43.93
6094;BME280;19964;42.060;24.700;2023-04-20T12:59:35;96977.59;;;20.10;45.79
6094;BME280;19964;42.060;24.700;2023-04-20T13:02:02;96982.28;;;19.78;45.77